Latest Weather Observations for Tennant Creek

IDD60801

Issued at 8:41 am CST Wednesday 19 June 2019 (issued every 10 minutes, with the page automatically refreshed every 10 minutes)

About weather observations | Map of weather stations | Latest weather observations for NT | Other Formats
Station Details ID: 015135 Name: TENNANT CREEK AIRPORT Lat: -19.64 Lon: 134.18 Height: 375.7 m
Data from the previous 72 hours. | See also: Recent months at Tennant Creek
Date/Time
CST
Temp
°C
App
Temp
°C
Dew
Point
°C
Rel
Hum
%
Delta-T
°C
Wind Press
QNH
hPa
Press
MSL
hPa
Rain since
9am
mm
Dir  Spd
km/h
Gust
km/h
Spd
kts
Gust
kts
19/08:30am 13.0 5.8 1.0 44 5.2 ESE 28 41 15 22 1022.3 1021.2 0.0
19/08:00am 12.1 5.3 1.1 47 4.7 ESE 26 33 14 18 1021.8 1020.7 0.0
19/07:30am 11.2 5.2 0.9 49 4.4 ESE 22 30 12 16 1021.7 1020.6 0.0
19/07:00am 10.9 5.3 0.9 50 4.2 ESE 20 28 11 15 1021.6 1020.5 0.0
19/06:30am 10.5 5.1 1.1 52 4.0 ESE 19 28 10 15 1021.6 1020.5 0.0
19/06:00am 10.5 5.8 0.8 51 4.1 ESE 15 20 8 11 1021.5 1020.4 0.0
19/05:30am 11.2 6.5 0.9 49 4.4 ESE 15 19 8 10 1021.5 1020.4 0.0
19/05:00am 11.6 6.5 1.0 48 4.5 ESE 17 22 9 12 1021.3 1020.2 0.0
19/04:30am 12.0 6.3 0.8 46 4.8 ESE 20 30 11 16 1021.2 1020.1 0.0
19/04:00am 12.7 7.0 0.8 44 5.1 ESE 20 28 11 15 1021.1 1020.0 0.0
19/03:30am 13.2 7.2 0.9 43 5.3 ESE 22 32 12 17 1020.8 1019.7 0.0
19/03:00am 13.7 7.3 1.0 42 5.5 SE 24 35 13 19 1021.0 1019.9 0.0
19/02:30am 14.0 7.2 1.0 41 5.7 ESE 26 35 14 19 1020.8 1019.7 0.0
19/02:00am 14.1 6.9 0.7 40 5.8 ESE 28 35 15 19 1020.7 1019.6 0.0
19/01:30am 14.5 8.4 0.7 39 6.0 SE 22 30 12 16 1021.4 1020.3 0.0
19/01:00am 14.8 8.3 0.6 38 6.2 SE 24 32 13 17 1021.6 1020.5 0.0
19/12:30am 15.0 7.7 0.1 36 6.4 ESE 28 35 15 19 1021.4 1020.3 0.0
19/12:00am 15.3 8.4 -0.1 35 6.6 ESE 26 35 14 19 1021.3 1020.2 0.0
 
Date/Time
CST
Temp
°C
App
Temp
°C
Dew
Point
°C
Rel
Hum
%
Delta-T
°C
Wind Press
QNH
hPa
Press
MSL
hPa
Rain since
9am
mm
Dir  Spd
km/h
Gust
km/h
Spd
kts
Gust
kts
18/11:30pm 15.5 8.9 -0.3 34 6.8 ESE 24 32 13 17 1021.7 1020.6 0.0
18/11:00pm 15.8 10.0 -0.4 33 7.0 ESE 20 33 11 18 1021.8 1020.7 0.0
18/10:30pm 16.2 10.3 -0.9 31 7.3 ESE 20 30 11 16 1021.8 1020.7 0.0
18/10:00pm 16.7 11.0 -0.9 30 7.6 ESE 19 24 10 13 1021.7 1020.6 0.0
18/09:30pm 17.0 11.1 -1.1 29 7.7 ESE 20 28 11 15 1021.5 1020.4 0.0
18/09:00pm 17.1 11.7 -1.5 28 7.9 ESE 17 22 9 12 1021.4 1020.3 0.0
18/08:30pm 17.6 12.5 -1.6 27 8.2 SE 15 19 8 10 1021.1 1020.0 0.0
18/08:00pm 18.2 13.1 -2.1 25 8.6 SE 15 19 8 10 1020.8 1019.7 0.0
18/07:30pm 18.6 13.5 -2.3 24 8.9 ESE 15 19 8 10 1020.5 1019.4 0.0
18/07:00pm 19.3 13.8 -2.3 23 9.2 ESE 17 22 9 12 1020.0 1018.9 0.0
18/06:30pm 19.9 14.0 -2.4 22 9.5 SE 19 24 10 13 1019.6 1018.5 0.0
18/06:00pm 20.7 14.1 -3.0 20 10.1 SE 22 28 12 15 1019.2 1018.1 0.0
18/05:30pm 21.4 14.4 -3.1 19 10.5 SE 24 33 13 18 1019.1 1018.0 0.0
18/05:00pm 21.8 15.3 -2.8 19 10.7 SE 22 30 12 16 1018.8 1017.7 0.0
18/04:30pm 22.3 15.4 -2.4 19 10.8 SE 24 32 13 17 1018.8 1017.7 0.0
18/04:00pm 22.5 15.4 -1.6 20 10.7 SE 26 37 14 20 1018.8 1017.7 0.0
18/03:30pm 22.6 15.8 -1.5 20 10.8 SE 24 33 13 18 1019.0 1017.9 0.0
18/03:00pm 22.2 15.4 -1.8 20 10.6 SE 24 32 13 17 1019.1 1018.0 0.0
18/02:30pm 22.2 15.4 -1.8 20 10.6 SE 24 35 13 19 1019.4 1018.3 0.0
18/02:00pm 22.3 15.5 -1.7 20 10.7 SE 24 33 13 18 1019.9 1018.8 0.0
18/01:30pm 21.6 14.5 -1.6 21 10.2 ESE 26 35 14 19 1020.5 1019.4 0.0
18/01:00pm 20.9 13.1 -1.0 23 9.8 SE 30 41 16 22 1021.2 1020.1 0.0
18/12:30pm 20.9 13.5 -1.0 23 9.7 SE 28 37 15 20 1021.8 1020.7 0.0
18/12:00pm 20.3 12.4 -1.5 23 9.5 ESE 30 39 16 21 1022.4 1021.4 0.0
18/11:30am 19.5 11.0 -1.6 24 9.1 SE 33 41 18 22 1022.7 1021.7 0.0
18/11:00am 19.1 10.7 -0.8 26 8.8 ESE 33 41 18 22 1023.1 1022.1 0.0
18/10:30am 17.8 9.7 -0.5 29 8.0 ESE 32 39 17 21 1023.6 1022.5 0.0
18/10:00am 17.2 8.9 -0.1 31 7.6 SE 33 41 18 22 1023.6 1022.5 0.0
18/09:30am 16.4 8.4 0.5 34 7.0 ESE 32 39 17 21 1023.6 1022.5 0.0
18/09:00am 15.4 7.4 0.4 36 6.5 ESE 32 41 17 22 1023.6 1022.5 0.0
18/08:30am 14.6 7.0 0.8 39 6.0 ESE 30 37 16 20 1023.3 1022.2 0.0
18/08:00am 14.0 7.2 1.0 41 5.7 ESE 26 33 14 18 1023.0 1022.0 0.0
18/07:30am 13.4 6.2 0.8 42 5.4 ESE 28 33 15 18 1022.6 1021.6 0.0
18/07:00am 13.3 6.9 0.7 42 5.4 ESE 24 33 13 18 1022.2 1021.1 0.0
18/06:30am 13.5 6.6 0.2 40 5.7 ESE 26 39 14 21 1021.9 1020.8 0.0
18/06:00am 13.6 7.1 0.3 40 5.7 ESE 24 32 13 17 1021.8 1020.7 0.0
18/05:30am 13.9 7.3 -0.2 38 6.0 ESE 24 35 13 19 1021.6 1020.5 0.0
18/05:00am 14.3 7.0 -0.2 37 6.2 ESE 28 37 15 20 1021.3 1020.2 0.0
18/04:30am 14.6 7.3 -0.3 36 6.3 ESE 28 37 15 20 1021.2 1020.1 0.0
18/04:00am 15.0 8.0 -0.3 35 6.6 ESE 26 33 14 18 1021.0 1019.9 0.0
18/03:30am 15.3 8.3 -0.4 34 6.7 ESE 26 35 14 19 1021.0 1019.9 0.0
18/03:00am 15.6 9.0 -0.6 33 6.9 ESE 24 32 13 17 1020.9 1019.8 0.0
18/02:30am 16.0 9.4 -0.2 33 7.0 ESE 24 33 13 18 1021.0 1019.9 0.0
18/02:00am 16.2 10.0 -0.1 33 7.1 ESE 22 30 12 16 1021.1 1020.0 0.0
18/01:30am 16.7 10.2 0.4 33 7.2 ESE 24 32 13 17 1021.2 1020.1 0.0
18/01:00am 17.2 10.8 0.8 33 7.3 ESE 24 35 13 19 1021.2 1020.1 0.0
18/12:30am 17.6 11.2 1.2 33 7.4 ESE 24 32 13 17 1021.1 1020.0 0.0
18/12:00am 18.0 12.1 1.5 33 7.5 ESE 22 32 12 17 1021.0 1019.9 0.0
 
Date/Time
CST
Temp
°C
App
Temp
°C
Dew
Point
°C
Rel
Hum
%
Delta-T
°C
Wind Press
QNH
hPa
Press
MSL
hPa
Rain since
9am
mm
Dir  Spd
km/h
Gust
km/h
Spd
kts
Gust
kts
17/11:30pm 18.3 12.9 2.2 34 7.5 ESE 20 26 11 14 1021.0 1019.9 0.0
17/11:00pm 18.7 13.5 2.5 34 7.6 ESE 19 28 10 15 1021.1 1020.0 0.0
17/10:30pm 18.9 13.8 3.1 35 7.5 ESE 19 26 10 14 1020.9 1019.8 0.0
17/10:00pm 19.5 13.9 3.6 35 7.7 ESE 22 33 12 18 1020.8 1019.7 0.0
17/09:30pm 20.0 14.1 4.1 35 7.7 ESE 24 30 13 16 1020.5 1019.4 0.0
17/09:00pm 20.1 15.3 4.6 36 7.6 ESE 19 28 10 15 1020.5 1019.4 0.0
17/08:30pm 20.8 16.4 4.8 35 7.9 ESE 17 24 9 13 1020.2 1019.2 0.0
17/08:00pm 21.3 17.4 5.2 35 8.1 ESE 15 20 8 11 1020.0 1018.9 0.0
17/07:30pm 21.6 17.6 5.1 34 8.3 ESE 15 20 8 11 1019.5 1018.4 0.0
17/07:00pm 22.2 19.0 5.2 33 8.6 SE 11 15 6 8 1019.2 1018.1 0.0
17/06:30pm 22.9 19.0 5.3 32 9.0 SE 15 19 8 10 1018.8 1017.7 0.0
17/06:00pm 23.6 19.2 5.0 30 9.5 ESE 17 24 9 13 1018.4 1017.3 0.0
17/05:30pm 24.3 19.6 5.1 29 9.8 ESE 19 26 10 14 1018.3 1017.2 0.0
17/05:00pm 24.7 20.3 5.0 28 10.1 ESE 17 22 9 12 1018.0 1016.9 0.0
17/04:30pm 24.9 19.9 4.6 27 10.3 ESE 20 28 11 15 1017.9 1016.8 0.0
17/04:00pm 25.2 20.4 4.9 27 10.4 ESE 19 28 10 15 1017.9 1016.8 0.0
17/03:30pm 25.2 20.4 4.9 27 10.4 SE 19 28 10 15 1018.1 1017.0 0.0
17/03:00pm 25.0 20.0 4.7 27 10.4 ESE 20 28 11 15 1018.5 1017.4 0.0
17/02:30pm 24.9 20.1 4.6 27 10.3 ESE 19 28 10 15 1018.9 1017.8 0.0
17/02:00pm 24.9 19.9 4.6 27 10.3 E 20 30 11 16 1019.1 1018.0 0.0
17/01:30pm 24.5 19.1 4.3 27 10.2 ESE 22 32 12 17 1019.5 1018.4 0.0
17/01:00pm 23.0 17.0 3.5 28 9.6 ESE 24 32 13 17 1020.3 1019.3 0.0
17/12:30pm 22.8 16.8 3.4 28 9.5 ESE 24 35 13 19 1020.9 1019.8 0.0
17/12:00pm 22.1 16.0 2.8 28 9.3 ESE 24 35 13 19 1021.4 1020.3 0.0
17/11:30am 21.8 15.7 3.0 29 9.1 ESE 24 37 13 20 1021.9 1020.8 0.0
17/11:00am 20.4 14.2 2.3 30 8.6 ESE 24 33 13 18 1022.3 1021.2 0.0
17/10:30am 19.6 12.3 2.5 32 8.0 ESE 30 37 16 20 1022.5 1021.5 0.0
17/10:00am 18.8 12.3 2.6 34 7.6 ESE 26 37 14 20 1022.7 1021.7 0.0
17/09:30am 18.3 10.7 2.6 35 7.3 ESE 32 41 17 22 1022.6 1021.6 0.0
17/09:17am 17.6 10.3 2.4 36 7.1 ESE 30 48 16 26 1022.5 1021.5 0.0
17/09:00am 17.2 8.6 2.8 38 6.7 E 37 50 20 27 1021.9 1020.8 -
17/08:30am 16.8 8.4 3.5 41 6.2 ESE 37 50 20 27 1021.4 1020.3 -
17/08:00am 16.5 9.2 4.5 45 5.8 ESE 32 41 17 22 1021.3 1020.2 -
17/07:30am 16.0 9.9 4.7 47 5.4 ESE 26 35 14 19 1021.2 1020.1 -
17/07:00am 16.1 10.4 5.1 48 5.3 ESE 24 41 13 22 1021.1 1020.0 -
17/06:30am 16.3 9.2 5.3 48 5.3 ESE 32 39 17 21 1020.2 1019.2 -
17/06:00am 16.5 8.5 5.5 48 5.4 ESE 37 48 20 26 1019.9 1018.8 -
17/05:30am 16.7 8.6 5.3 47 5.6 ESE 37 48 20 26 1019.8 1018.7 -
17/05:00am 17.0 8.6 5.6 47 5.6 ESE 39 52 21 28 1019.5 1018.4 -
17/04:40am 17.3 10.2 5.6 46 5.8 ESE 32 50 17 27 1019.3 1018.2 -
17/04:30am 17.4 10.2 5.7 46 5.8 ESE 33 41 18 22 1019.3 1018.2 -
17/04:00am 17.7 10.7 5.9 46 5.9 ESE 32 44 17 24 1019.3 1018.2 -
17/03:30am 17.9 11.3 6.1 46 5.9 ESE 30 37 16 20 1019.3 1018.2 -
17/03:00am 18.2 12.1 6.4 46 5.9 ESE 28 39 15 21 1019.2 1018.1 -
17/02:30am 18.5 12.6 7.3 48 5.8 ESE 28 37 15 20 1019.2 1018.1 -
17/02:00am 18.7 12.2 8.1 50 5.5 ESE 32 43 17 23 1019.2 1018.1 -
17/01:30am 19.0 13.0 8.6 51 5.5 ESE 30 44 16 24 1019.5 1018.4 -
17/01:00am 19.1 13.2 9.0 52 5.4 ESE 30 39 16 21 1019.8 1018.7 -
17/12:30am 19.4 13.7 9.9 54 5.2 ESE 30 39 16 21 1020.0 1018.9 -
17/12:00am 19.7 14.2 10.4 55 5.1 ESE 30 37 16 20 1020.0 1018.9 -
 
Date/Time
CST
Temp
°C
App
Temp
°C
Dew
Point
°C
Rel
Hum
%
Delta-T
°C
Wind Press
QNH
hPa
Press
MSL
hPa
Rain since
9am
mm
Dir  Spd
km/h
Gust
km/h
Spd
kts
Gust
kts
16/11:30pm 20.1 15.1 11.1 56 5.0 ESE 28 39 15 21 1020.1 1019.1 -
16/11:00pm 20.4 15.8 11.1 55 5.2 ESE 26 35 14 19 1020.3 1019.3 -
16/10:30pm 20.8 16.5 10.9 53 5.5 ESE 24 35 13 19 1020.1 1019.1 -
16/10:00pm 21.5 17.5 10.6 50 6.1 ESE 22 32 12 17 1020.0 1018.9 -
16/09:30pm 22.0 17.5 9.9 46 6.7 ESE 24 32 13 17 1019.8 1018.7 -
16/09:00pm 22.5 18.0 8.6 41 7.5 ESE 22 30 12 16 1019.6 1018.5 -
16/08:30pm 23.0 18.9 7.9 38 8.1 ESE 19 24 10 13 1019.4 1018.3 -
16/08:00pm 23.2 20.2 7.7 37 8.3 SE 13 15 7 8 1019.1 1018.0 -
16/07:30pm 24.0 21.0 7.6 35 8.8 ESE 13 15 7 8 1018.6 1017.5 -
16/07:00pm 24.4 21.7 7.5 34 9.0 ESE 11 15 6 8 1018.2 1017.1 -
16/06:30pm 25.2 21.8 7.8 33 9.4 ESE 15 19 8 10 1017.9 1016.8 -
16/06:00pm 26.0 21.8 7.6 31 9.9 ESE 19 24 10 13 1017.4 1016.3 -
16/05:30pm 26.7 22.6 7.7 30 10.3 ESE 19 24 10 13 1017.2 1016.1 -
16/05:00pm 27.1 22.9 7.5 29 10.6 ESE 19 28 10 15 1017.0 1015.9 -
16/04:30pm 27.4 23.1 7.8 29 10.7 E 20 35 11 19 1016.9 1015.8 -
16/04:00pm 27.8 23.4 7.6 28 11.0 ESE 20 28 11 15 1016.8 1015.7 -
16/03:30pm 27.8 24.1 8.1 29 10.8 E 17 26 9 14 1017.0 1015.9 -
16/03:00pm 27.7 23.5 8.1 29 10.8 E 20 33 11 18 1017.1 1016.0 -
16/02:30pm 27.6 23.0 8.0 29 10.8 E 22 33 12 18 1017.3 1016.2 -
16/02:00pm 26.6 21.5 7.6 30 10.3 E 24 35 13 19 1017.7 1016.5 -
16/01:30pm 26.2 21.0 7.3 30 10.2 E 24 32 13 17 1017.9 1016.8 -
16/01:00pm 26.2 21.1 7.7 31 10.0 E 24 35 13 19 1018.4 1017.3 -
16/12:30pm 25.4 19.1 7.5 32 9.6 E 30 39 16 21 1018.8 1017.7 -
16/12:00pm 24.8 18.9 7.4 33 9.3 E 28 37 15 20 1019.1 1018.0 -
16/11:30am 24.3 18.4 7.4 34 9.0 E 28 37 15 20 1019.7 1018.6 -
16/11:00am 22.9 16.6 7.4 37 8.2 E 30 39 16 21 1020.0 1018.9 -
16/10:30am 23.3 16.7 7.8 37 8.3 E 32 43 17 23 1020.2 1019.2 -
16/10:00am 21.3 14.6 7.5 41 7.3 ESE 32 39 17 21 1020.3 1019.3 -
16/09:30am 20.7 13.8 7.3 42 7.0 ESE 33 41 18 22 1020.2 1019.2 -

Other formats

Comma delimited format used in spreadsheet applications
http://www.bom.gov.au/fwo/IDD60801/IDD60801.94238.axf

JavaScript Object Notation format (JSON) in row-major order
http://www.bom.gov.au/fwo/IDD60801/IDD60801.94238.json

Data quality

Most of these data are generated automatically and are frequently updated. Quality checks on data are not normally performed. It is possible for incorrect values to appear. Refer to information at About Latest Weather Observations and please check the disclaimer before using these data.